Архив погоды в Агзу

Метеограмма Агзу
Воскресенье, 25 Июня
Время местн. Темп Ветер Видим Явления Облачность нижн/средн/верх Атм. давл. Влжн Точка росы ВНГО R Сост. почвы Tg s
Напр Скр Прв ур.ст ур.м изм
01:00 +8.4° штиль 0 - 10 км слабый ливневый дождь облачно 742 758 +0.3 96% +7.8° 1 км - - - -
Суббота, 24 Июня
Время местн. Темп Ветер Видим Явления Облачность нижн/средн/верх Атм. давл. Влжн Точка росы ВНГО R Сост. почвы Tg s
Напр Скр Прв ур.ст ур.м изм
22:00 - +9° штиль 0 - - - - 742 757 +1.1 88% +7.2° - - - - -
19:00 +10.7° В 2 - более 50 км - облачно 741 756 +1.2 76% +6.6° 1 км 0.7 - - -
16:00 - +13.4° В,Ю-В 1 - - - - 740 755 0 84% +10.8° - - - - -
13:00 +14.8° Ю-В 3 - более 50 км - преимущественно облачно 740 755 +0.1 78% +11.1° 1 км - - - -
10:00 - +13.5° штиль 0 - - - - 740 755 +0.9 94% +12.5° - - - - -
07:00 +14.3° штиль 0 - 20 км - облачно 739 754 +0.6 97% +13.9° 300 м 5 Сырая (есть малые или большие лужи) +14° -
04:00 - +14° штиль 0 - - - - 738 753 -0.2 97% +13.5° - - - - -
01:00 +15° штиль 0 - 20 км небо без изменений {ливневые осадки} облачно 738 753 -0.5 97% +14.6° 300 м - - - -
Пятница, 23 Июня
Время местн. Темп Ветер Видим Явления Облачность нижн/средн/верх Атм. давл. Влжн Точка росы ВНГО R Сост. почвы Tg s
Напр Скр Прв ур.ст ур.м изм
22:00 - +15.7° штиль 0 - - - - 739 754 +0.8 97% +15.2° - - - - -
19:00 +16.6° С-В 1 10 10 км слабый ливневый дождь облачно 738 753 +1.7 95% +15.8° 1 км 2 - - -
16:00 - +24° В,С-В 4 10 - - - 737 751 -1.4 48% +12.4° - - - - -
13:00 +25.2° В 1 - более 50 км - облачно 738 752 -1.9 52% +14.6° 1.5 км - - - -
10:00 - +15° штиль 0 - - - - 740 754 -0.4 93% +13.8° - - - - -
07:00 +12.8° Ю-З 1 - 20 км - облачно 740 755 -0.1 97% +12.3° 300 м 0 Сырая (есть малые или большие лужи) +11° -
04:00 - +10.7° штиль 0 - - - - 740 755 +0.6 97% +10.3° - - - - -
01:00 +13.1° С,С-В 1 - 20 км - переменная облачность 740 755 +0.6 97% +12.6° 300 м - - - -
Четверг, 22 Июня
Время местн. Темп Ветер Видим Явления Облачность нижн/средн/верх Атм. давл. Влжн Точка росы ВНГО R Сост. почвы Tg s
Напр Скр Прв ур.ст ур.м изм
22:00 - +16.4° С-В 1 - - - - 740 754 +1.4 94% +15.4° - - - - -
19:00 +19.9° В 1 - более 50 км - переменная облачность 738 753 +0.2 87% +17.6° 1.5 км 7 - - -
16:00 - +17.2° В,Ю-В 1 - - - - 738 753 -1.2 96% +16.5° - - - - -
13:00 +27.2° Ю-З 2 - более 50 км - переменная облачность 738 752 -2.3 36% +10.8° 1.5 км - - - -
10:00 - +20.7° Ю 1 - - - - 739 753 -1.1 69% +14.7° - - - - -
07:00 +13.5° штиль 0 - 20 км - облачно 740 755 +0.5 92% +12.3° 300 м 0 Влажная (без луж) +13° -
04:00 - +12.5° штиль 0 - - - - 739 754 -0.2 95% +11.7° - - - - -
01:00 +12° штиль 0 - 20 км - облачно 740 754 -1.4 95% +11.3° 1.5 км - - - -
Среда, 21 Июня
Время местн. Темп Ветер Видим Явления Облачность нижн/средн/верх Атм. давл. Влжн Точка росы ВНГО R Сост. почвы Tg s
Напр Скр Прв ур.ст ур.м изм
22:00 - +12.6° В 2 - - - - 741 756 +0.8 93% +11.5° - - - - -